Time;durP1;ratioP1;P1;durP2;ratioP2;P2;SDS_P1;SDS_P2;PMS_P1;PMS_P2;Temp;Humidity;BMP_temperature;BMP_pressure;BME280_temperature;BME280_humidity;BME280_pressure;Samples;Min_cycle;Max_cycle;Signal;HPM_P1;HPM_P2
2022/03/20 00:00:41;;;;;;;;;;;;;;;-1.34;52.45;102178.75;5016701;28;19937;-88
2022/03/20 00:03:07;;;;;;;;;;;;;;;-1.31;52.00;102173.78;5021459;28;20396;-91
2022/03/20 00:05:38;;;;;;;;;;;;;;;-1.05;51.97;102177.38;5012125;28;19922;-90
2022/03/20 00:08:08;;;;;;;;;;;;;;;-1.20;51.85;102184.03;4988355;28;19989;-90
2022/03/20 00:10:34;;;;;;;;;;;;;;;-1.92;53.13;102174.44;5022781;28;19957;-89
2022/03/20 00:13:00;;;;;;;;;;;;;;;-2.13;53.99;102182.41;4989000;28;19964;-86
2022/03/20 00:15:26;;;;;;;;;;;;;;;-1.91;53.33;102168.50;4987997;28;19926;-87
2022/03/20 00:17:52;;;;;;;;;;;;;;;-1.87;52.74;102175.69;4988715;28;19945;-90
2022/03/20 00:20:18;;;;;;;;;;;;;;;-1.48;52.29;102175.16;4987857;28;20399;-91
2022/03/20 00:22:44;;;;;;;;;;;;;;;-1.51;52.51;102169.75;5001406;28;19918;-89
2022/03/20 00:25:10;;;;;;;;;;;;;;;-1.43;52.06;102166.84;5003937;28;19932;-92
2022/03/20 00:27:35;;;;;;;;;;;;;;;-1.23;51.27;102160.50;5020919;28;19926;-90
2022/03/20 00:30:01;;;;;;;;;;;;;;;-1.37;50.29;102162.09;5005948;28;20405;-90
2022/03/20 00:32:26;;;;;;;;;;;;;;;-1.45;50.23;102151.19;4987135;28;19921;-88
2022/03/20 00:34:56;;;;;;;;;;;;;;;-1.43;50.44;102159.97;5019886;28;19925;-88
2022/03/20 00:37:22;;;;;;;;;;;;;;;-1.50;50.78;102156.03;5020825;28;19921;-89
2022/03/20 00:39:47;;;;;;;;;;;;;;;-1.37;50.42;102150.03;5021537;28;19917;-89
2022/03/20 00:42:12;;;;;;;;;;;;;;;-1.26;50.78;102151.72;5020706;28;19926;-92
2022/03/20 00:44:38;;;;;;;;;;;;;;;-1.27;50.24;102144.75;4988709;28;19932;-92
2022/03/20 00:47:03;;;;;;;;;;;;;;;-1.17;50.50;102145.41;4986918;28;19928;-92
2022/03/20 00:49:30;;;;;;;;;;;;;;;-1.11;50.20;102153.63;5005169;28;19940;-93
2022/03/20 00:51:56;;;;;;;;;;;;;;;-1.09;50.94;102147.75;5004862;28;19940;-92
2022/03/20 00:54:21;;;;;;;;;;;;;;;-1.21;52.00;102146.84;4987947;28;19922;-91
2022/03/20 00:56:46;;;;;;;;;;;;;;;-1.13;52.00;102148.34;4987946;28;19949;-89
2022/03/20 00:59:12;;;;;;;;;;;;;;;-1.07;51.92;102153.03;5004948;28;19921;-89
2022/03/20 01:01:37;;;;;;;;;;;;;;;-1.03;51.21;102154.16;5012331;28;19933;-91
2022/03/20 01:04:02;;;;;;;;;;;;;;;-1.03;51.32;102151.59;5000685;28;19926;-90
2022/03/20 01:06:28;;;;;;;;;;;;;;;-1.09;52.05;102152.03;4968560;28;19922;-90
2022/03/20 01:08:53;;;;;;;;;;;;;;;-1.08;52.32;102152.13;5016287;28;19926;-87
2022/03/20 01:11:19;;;;;;;;;;;;;;;-1.05;52.42;102156.66;4988664;28;19918;-89
2022/03/20 01:13:44;;;;;;;;;;;;;;;-1.17;52.76;102150.59;4986891;28;19926;-87
2022/03/20 01:16:09;;;;;;;;;;;;;;;-1.14;51.86;102159.47;5019970;28;19922;-87
2022/03/20 01:18:35;;;;;;;;;;;;;;;-1.29;52.06;102159.25;5018642;28;20021;-90
2022/03/20 01:21:00;;;;;;;;;;;;;;;-1.43;52.16;102154.78;5020527;28;20307;-90
2022/03/20 01:23:25;;;;;;;;;;;;;;;-1.55;53.25;102156.47;5019733;28;19944;-89
2022/03/20 01:25:51;;;;;;;;;;;;;;;-1.57;53.91;102158.06;4986450;28;19929;-90
2022/03/20 01:28:17;;;;;;;;;;;;;;;-1.47;53.46;102147.56;5002540;28;19926;-88
2022/03/20 01:30:43;;;;;;;;;;;;;;;-1.57;54.73;102145.13;4986892;28;20002;-89
2022/03/20 01:33:08;;;;;;;;;;;;;;;-1.52;54.88;102143.75;5005715;28;20065;-88
2022/03/20 01:35:35;;;;;;;;;;;;;;;-1.60;54.00;102150.06;4999923;28;19976;-87
2022/03/20 01:38:00;;;;;;;;;;;;;;;-1.58;54.25;102140.72;5019760;28;19992;-91
2022/03/20 01:40:26;;;;;;;;;;;;;;;-1.69;54.04;102139.94;5012197;28;20024;-92
2022/03/20 01:42:52;;;;;;;;;;;;;;;-1.78;54.71;102139.25;5000800;28;19926;-93
2022/03/20 01:45:18;;;;;;;;;;;;;;;-1.75;54.44;102136.88;5009842;28;19922;-90
2022/03/20 01:47:47;;;;;;;;;;;;;;;-1.81;54.08;102130.47;5003712;28;20033;-92
2022/03/20 01:50:14;;;;;;;;;;;;;;;-2.05;54.23;102137.31;5003787;28;19980;-87
2022/03/20 01:52:39;;;;;;;;;;;;;;;-2.50;54.77;102147.63;5004713;28;19932;-93
2022/03/20 01:55:06;;;;;;;;;;;;;;;-2.44;55.14;102145.50;4986404;28;19942;-94
2022/03/20 01:57:36;;;;;;;;;;;;;;;-2.42;55.17;102147.44;5004438;28;20673;-93
2022/03/20 02:00:03;;;;;;;;;;;;;;;-2.54;55.46;102149.97;4999544;28;19933;-88
2022/03/20 02:02:28;;;;;;;;;;;;;;;-2.66;56.09;102150.72;5017270;28;19929;-90
2022/03/20 02:04:54;;;;;;;;;;;;;;;-2.45;56.03;102149.78;4986184;28;20318;-90
2022/03/20 02:07:21;;;;;;;;;;;;;;;-2.59;55.37;102153.91;4987803;28;20447;-91
2022/03/20 02:09:46;;;;;;;;;;;;;;;-2.83;56.50;102154.56;4987105;28;19932;-90
2022/03/20 02:12:12;;;;;;;;;;;;;;;-2.84;57.04;102151.09;5003281;28;20012;-90
2022/03/20 02:14:37;;;;;;;;;;;;;;;-3.09;57.75;102151.75;4989168;28;19921;-90
2022/03/20 02:17:04;;;;;;;;;;;;;;;-3.19;58.17;102149.19;4986958;28;19918;-91
2022/03/20 02:19:34;;;;;;;;;;;;;;;-3.06;58.39;102148.47;5017282;28;19930;-89
2022/03/20 02:22:00;;;;;;;;;;;;;;;-3.09;59.26;102146.56;4983729;28;19922;-90
2022/03/20 02:24:29;;;;;;;;;;;;;;;-2.95;59.43;102151.91;4993894;28;20364;-91
2022/03/20 02:27:05;;;;;;;;;;;;;;;-2.95;58.90;102155.41;5000573;28;19922;-88
2022/03/20 02:29:31;;;;;;;;;;;;;;;-2.95;59.28;102152.84;5002614;28;19988;-89
2022/03/20 02:31:58;;;;;;;;;;;;;;;-2.78;58.97;102143.81;4986456;28;19930;-90
2022/03/20 02:34:25;;;;;;;;;;;;;;;-3.08;60.70;102150.94;5004031;28;19925;-92
2022/03/20 02:36:50;;;;;;;;;;;;;;;-3.29;61.54;102142.41;4987878;28;19925;-92
2022/03/20 02:39:16;;;;;;;;;;;;;;;-3.46;61.53;102143.63;4987536;28;20466;-87
2022/03/20 02:41:42;;;;;;;;;;;;;;;-3.02;60.72;102157.41;4987233;28;19937;-89
2022/03/20 02:44:07;;;;;;;;;;;;;;;-2.77;59.24;102148.19;4971957;28;19992;-92
2022/03/20 02:46:37;;;;;;;;;;;;;;;-2.95;59.42;102139.91;5016017;28;19948;-89
2022/03/20 02:49:06;;;;;;;;;;;;;;;-3.15;60.79;102142.59;4982795;28;19926;-90
2022/03/20 02:51:32;;;;;;;;;;;;;;;-2.90;60.53;102148.03;4986138;28;19926;-88
2022/03/20 02:53:57;;;;;;;;;;;;;;;-2.82;59.95;102146.06;4999677;28;19948;-87
2022/03/20 02:56:23;;;;;;;;;;;;;;;-2.98;60.26;102146.50;4981281;28;20469;-88
2022/03/20 02:58:49;;;;;;;;;;;;;;;-2.94;60.12;102152.03;5021987;28;19934;-86
2022/03/20 03:01:16;;;;;;;;;;;;;;;-2.77;59.12;102149.88;4992035;28;20439;-89
2022/03/20 03:03:45;;;;;;;;;;;;;;;-2.54;59.41;102146.50;5022612;28;19937;-91
2022/03/20 03:06:10;;;;;;;;;;;;;;;-2.51;58.43;102144.16;4990115;28;20727;-91
2022/03/20 03:11:20;;;;;;;;;;;;;;;-2.76;59.34;102147.41;4991326;28;19932;-88
2022/03/20 03:13:45;;;;;;;;;;;;;;;-2.84;59.24;102143.34;4990807;28;20316;-90
2022/03/20 03:16:11;;;;;;;;;;;;;;;-2.73;58.46;102137.31;4992687;28;19926;-93
2022/03/20 03:18:37;;;;;;;;;;;;;;;-2.70;58.90;102141.84;4990808;28;19997;-92
2022/03/20 03:21:03;;;;;;;;;;;;;;;-2.89;59.49;102144.63;4991255;28;20016;-92
2022/03/20 03:23:29;;;;;;;;;;;;;;;-3.17;59.88;102142.47;4990081;28;20028;-90
2022/03/20 03:25:56;;;;;;;;;;;;;;;-3.09;59.79;102146.56;4990757;28;19925;-90
2022/03/20 03:28:22;;;;;;;;;;;;;;;-3.07;60.06;102152.75;5002873;28;19976;-90
2022/03/20 03:30:48;;;;;;;;;;;;;;;-2.95;60.32;102147.66;5003239;28;19980;-88
2022/03/20 03:33:16;;;;;;;;;;;;;;;-2.95;59.88;102141.56;5002104;28;19983;-87
2022/03/20 03:35:44;;;;;;;;;;;;;;;-2.79;59.29;102147.19;5010803;28;19964;-89
2022/03/20 03:38:11;;;;;;;;;;;;;;;-2.87;59.96;102145.69;5016497;28;19929;-88
2022/03/20 03:40:37;;;;;;;;;;;;;;;-3.01;58.96;102142.03;4989336;28;20315;-88
2022/03/20 03:43:03;;;;;;;;;;;;;;;-2.73;59.31;102145.06;4990861;28;19932;-92
2022/03/20 03:45:29;;;;;;;;;;;;;;;-2.76;58.01;102147.41;4989824;28;20399;-90
2022/03/20 03:47:55;;;;;;;;;;;;;;;-2.71;58.41;102148.66;4989050;28;19925;-88
2022/03/20 03:50:20;;;;;;;;;;;;;;;-2.85;57.69;102145.81;4989296;28;20323;-86
2022/03/20 03:52:46;;;;;;;;;;;;;;;-2.68;57.48;102148.00;4989811;28;20063;-89
2022/03/20 03:55:12;;;;;;;;;;;;;;;-2.54;56.62;102149.97;4989074;28;19921;-89
2022/03/20 03:57:41;;;;;;;;;;;;;;;-2.48;56.69;102151.25;4988792;28;19925;-86
2022/03/20 04:00:07;;;;;;;;;;;;;;;-2.67;57.47;102155.00;4987637;28;20078;-89
2022/03/20 04:02:33;;;;;;;;;;;;;;;-2.93;57.64;102150.38;5021014;28;20020;-88
2022/03/20 04:04:59;;;;;;;;;;;;;;;-2.90;57.50;102148.03;4989437;28;19925;-89
2022/03/20 04:07:24;;;;;;;;;;;;;;;-3.07;58.24;102150.16;4988214;28;19932;-90
2022/03/20 04:09:50;;;;;;;;;;;;;;;-3.03;57.71;102153.00;4988750;28;19968;-90
2022/03/20 04:12:16;;;;;;;;;;;;;;;-2.95;56.89;102146.75;4988904;28;19957;-90
2022/03/20 04:14:42;;;;;;;;;;;;;;;-3.23;57.99;102144.56;5005435;28;19965;-88
2022/03/20 04:17:08;;;;;;;;;;;;;;;-3.29;58.28;102139.81;4988190;28;19949;-90
2022/03/20 04:19:33;;;;;;;;;;;;;;;-3.14;57.94;102150.44;4990656;28;19922;-89
2022/03/20 04:21:59;;;;;;;;;;;;;;;-3.26;57.04;102144.31;4989702;28;19922;-91
2022/03/20 04:24:25;;;;;;;;;;;;;;;-3.08;57.28;102150.06;4989959;28;20028;-90
2022/03/20 04:26:50;;;;;;;;;;;;;;;-3.00;56.94;102150.66;5002535;28;19929;-92
2022/03/20 04:29:20;;;;;;;;;;;;;;;-2.90;56.84;102155.78;5004295;28;20298;-94
2022/03/20 04:31:48;;;;;;;;;;;;;;;-2.81;56.36;102161.66;5022456;28;20243;-93
2022/03/20 04:34:14;;;;;;;;;;;;;;;-2.73;55.68;102158.00;5013531;28;19922;-90
2022/03/20 04:36:39;;;;;;;;;;;;;;;-2.85;56.54;102159.63;4991439;28;19933;-90
2022/03/20 04:39:04;;;;;;;;;;;;;;;-2.71;56.61;102158.13;4995098;28;19926;-94
2022/03/20 04:41:30;;;;;;;;;;;;;;;-2.84;56.45;102158.84;4989166;28;19918;-92
2022/03/20 04:43:55;;;;;;;;;;;;;;;-3.18;58.43;102152.66;4989476;28;20313;-91
2022/03/20 04:46:21;;;;;;;;;;;;;;;-3.26;57.95;102152.97;4989920;28;20000;-89
2022/03/20 04:59:43;;;;;;;;;;;;;;;-2.11;54.05;102154.06;4990346;28;20019;-91
2022/03/20 05:02:08;;;;;;;;;;;;;;;-1.71;53.34;102144.09;4988966;28;20423;-90
2022/03/20 05:04:33;;;;;;;;;;;;;;;-1.96;53.91;102150.03;4989325;28;19924;-90
2022/03/20 05:06:59;;;;;;;;;;;;;;;-1.88;54.35;102148.91;4987539;28;19932;-91
2022/03/20 05:14:56;;;;;;;;;;;;;;;-1.86;53.79;102157.69;4989523;28;19928;-91
2022/03/20 05:17:21;;;;;;;;;;;;;;;-1.71;54.21;102160.50;4999600;28;19972;-90
2022/03/20 05:19:46;;;;;;;;;;;;;;;-1.53;53.05;102166.16;5000868;28;20407;-89
2022/03/20 05:22:12;;;;;;;;;;;;;;;-1.42;51.86;102169.53;5002666;28;19980;-89
2022/03/20 05:24:38;;;;;;;;;;;;;;;-1.66;54.06;102174.69;5000487;28;19925;-89
2022/03/20 05:27:04;;;;;;;;;;;;;;;-1.46;54.54;102170.97;5000488;28;20048;-92
2022/03/20 05:29:29;;;;;;;;;;;;;;;-1.32;54.73;102168.50;5016426;28;20004;-89
2022/03/20 05:31:55;;;;;;;;;;;;;;;-1.12;54.47;102167.34;5020842;28;19929;-88
2022/03/20 05:34:20;;;;;;;;;;;;;;;-0.87;54.59;102169.09;5019569;28;19949;-87
2022/03/20 05:36:46;;;;;;;;;;;;;;;-0.68;54.25;102180.00;5017742;28;19929;-88
2022/03/20 05:39:11;;;;;;;;;;;;;;;-0.40;52.79;102174.13;4987940;28;19922;-90
2022/03/20 05:41:50;;;;;;;;;;;;;;;-0.20;52.17;102179.00;4987242;28;19925;-89
2022/03/20 05:44:19;;;;;;;;;;;;;;;-0.10;50.13;102167.53;5003775;28;20603;-90
2022/03/20 05:46:51;;;;;;;;;;;;;;;0.06;49.12;102166.84;5002483;28;19996;-90
2022/03/20 05:49:17;;;;;;;;;;;;;;;0.13;48.67;102139.63;4985834;28;19925;-88
2022/03/20 05:51:43;;;;;;;;;;;;;;;0.40;49.61;102176.88;5002890;28;19924;-91
2022/03/20 05:54:08;;;;;;;;;;;;;;;0.63;49.83;102173.19;4987502;28;19941;-92
2022/03/20 05:59:17;;;;;;;;;;;;;;;0.60;47.13;102175.59;4987980;28;20452;-89
2022/03/20 06:01:43;;;;;;;;;;;;;;;0.84;47.15;102176.28;4987449;28;20024;-89
2022/03/20 06:04:08;;;;;;;;;;;;;;;1.11;47.34;102176.25;4988010;28;20311;-89
2022/03/20 06:06:35;;;;;;;;;;;;;;;1.31;46.43;102176.59;5015530;28;20365;-86
2022/03/20 06:09:00;;;;;;;;;;;;;;;1.57;45.25;102178.22;4987215;28;19932;-84
2022/03/20 06:11:26;;;;;;;;;;;;;;;1.64;45.31;102175.19;5015949;28;20664;-86
2022/03/20 06:13:51;;;;;;;;;;;;;;;1.90;45.52;102173.25;4987673;28;19930;-91
2022/03/20 06:16:18;;;;;;;;;;;;;;;1.93;42.73;102170.81;5018160;28;19928;-90
2022/03/20 06:18:43;;;;;;;;;;;;;;;2.00;44.89;102166.91;4986798;28;19926;-89
2022/03/20 06:21:09;;;;;;;;;;;;;;;1.96;43.97;102174.53;4986435;28;19932;-87
2022/03/20 06:23:35;;;;;;;;;;;;;;;2.07;43.49;102169.03;5019834;28;19918;-88
2022/03/20 06:26:01;;;;;;;;;;;;;;;1.57;43.66;102175.63;4989019;28;19925;-91
2022/03/20 06:28:26;;;;;;;;;;;;;;;1.80;44.27;102174.41;5011241;28;19965;-91
2022/03/20 06:30:52;;;;;;;;;;;;;;;2.40;43.95;102171.84;4986824;28;19922;-88
2022/03/20 06:33:17;;;;;;;;;;;;;;;2.35;44.43;102170.66;4990869;28;19943;-88
2022/03/20 06:35:43;;;;;;;;;;;;;;;2.63;43.96;102174.03;4991386;28;20417;-87
2022/03/20 06:38:08;;;;;;;;;;;;;;;2.57;44.03;102173.69;4991056;28;19922;-89
2022/03/20 06:40:33;;;;;;;;;;;;;;;2.96;41.79;102171.53;5009893;28;19972;-91
2022/03/20 06:42:59;;;;;;;;;;;;;;;3.21;41.24;102175.50;5022035;28;20407;-92
2022/03/20 06:45:24;;;;;;;;;;;;;;;2.85;39.97;102173.53;4990724;28;19922;-88
2022/03/20 06:47:50;;;;;;;;;;;;;;;3.30;39.86;102168.16;5008891;28;20337;-91
2022/03/20 06:50:16;;;;;;;;;;;;;;;3.25;39.35;102167.03;4990243;28;19926;-89
2022/03/20 06:52:41;;;;;;;;;;;;;;;3.46;39.79;102171.59;4991793;28;19925;-88
2022/03/20 06:55:08;;;;;;;;;;;;;;;3.66;39.07;102164.81;4991826;28;20323;-93
2022/03/20 06:57:33;;;;;;;;;;;;;;;3.23;38.73;102171.28;5034299;28;19926;-90
2022/03/20 06:59:59;;;;;;;;;;;;;;;3.79;37.70;102169.00;4972520;28;19918;-89
2022/03/20 07:02:25;;;;;;;;;;;;;;;4.19;38.55;102165.81;5003611;28;19925;-87
2022/03/20 07:04:51;;;;;;;;;;;;;;;4.37;38.15;102163.22;4972625;28;19926;-93
2022/03/20 07:07:17;;;;;;;;;;;;;;;4.54;36.33;102162.34;5004572;28;20668;-93
2022/03/20 07:09:42;;;;;;;;;;;;;;;4.53;36.06;102162.28;4991051;28;19933;-88
2022/03/20 07:12:08;;;;;;;;;;;;;;;4.38;35.91;102165.03;4991891;28;20068;-88
2022/03/20 07:14:34;;;;;;;;;;;;;;;4.04;36.00;102164.19;4991649;28;20522;-89
2022/03/20 07:17:00;;;;;;;;;;;;;;;4.00;35.73;102162.28;5001371;28;20000;-88
2022/03/20 07:19:26;;;;;;;;;;;;;;;4.16;35.90;102158.72;5006252;28;20343;-89
2022/03/20 07:21:52;;;;;;;;;;;;;;;4.89;37.26;102159.63;5005599;28;19925;-86
2022/03/20 07:24:17;;;;;;;;;;;;;;;4.98;33.73;102160.97;5007613;28;19925;-92
2022/03/20 07:29:29;;;;;;;;;;;;;;;4.55;34.76;102150.16;4999122;28;19929;-86
2022/03/20 07:31:55;;;;;;;;;;;;;;;4.62;33.81;102149.66;4992039;28;19922;-90
2022/03/20 07:34:21;;;;;;;;;;;;;;;4.89;34.17;102144.81;4989382;28;19929;-86
2022/03/20 07:36:46;;;;;;;;;;;;;;;4.94;33.84;102138.13;4991512;28;19925;-92
2022/03/20 07:39:11;;;;;;;;;;;;;;;4.99;32.89;102141.84;5006774;28;20012;-93
2022/03/20 07:41:37;;;;;;;;;;;;;;;5.32;33.68;102144.22;5021286;28;19925;-88
2022/03/20 07:44:02;;;;;;;;;;;;;;;5.41;35.00;102134.97;4970824;28;19921;-90
2022/03/20 07:46:28;;;;;;;;;;;;;;;5.99;31.66;102132.31;4987130;28;19929;-90
2022/03/20 07:48:53;;;;;;;;;;;;;;;5.75;31.50;102137.38;5004885;28;19921;-92
2022/03/20 07:51:20;;;;;;;;;;;;;;;5.26;32.93;102143.03;5023476;28;19928;-92
2022/03/20 07:53:45;;;;;;;;;;;;;;;5.53;32.86;102132.91;4989741;28;19928;-92
2022/03/20 07:56:11;;;;;;;;;;;;;;;5.61;30.87;102130.63;4998366;28;19930;-92
2022/03/20 07:58:37;;;;;;;;;;;;;;;6.30;31.00;102124.84;4988635;28;19926;-92
2022/03/20 08:01:02;;;;;;;;;;;;;;;6.41;30.21;102121.84;5001680;28;19932;-92
2022/03/20 08:03:28;;;;;;;;;;;;;;;6.09;29.25;102120.53;5040860;28;20312;-93
2022/03/20 08:05:53;;;;;;;;;;;;;;;6.14;28.33;102120.72;4986599;28;19965;-91
2022/03/20 08:08:18;;;;;;;;;;;;;;;6.68;31.45;102109.78;4984699;28;19922;-93
2022/03/20 08:10:44;;;;;;;;;;;;;;;7.00;29.48;102116.28;4986050;28;20408;-92
2022/03/20 08:13:10;;;;;;;;;;;;;;;7.22;30.92;102109.22;4974407;28;19930;-89
2022/03/20 08:15:36;;;;;;;;;;;;;;;7.42;29.26;102104.72;4988930;28;19922;-89
2022/03/20 08:18:01;;;;;;;;;;;;;;;8.03;28.80;102091.09;5008469;28;19931;-90
2022/03/20 08:20:27;;;;;;;;;;;;;;;8.24;28.39;102104.03;5011673;28;19980;-92
2022/03/20 08:22:52;;;;;;;;;;;;;;;7.42;27.00;102092.47;4980340;28;20478;-90
2022/03/20 08:25:18;;;;;;;;;;;;;;;6.89;28.11;102093.97;5017163;28;20001;-88
2022/03/20 08:27:44;;;;;;;;;;;;;;;6.43;27.68;102096.59;4995973;28;19928;-89
2022/03/20 08:30:11;;;;;;;;;;;;;;;6.89;27.73;102088.72;4990265;28;19922;-88
2022/03/20 08:32:37;;;;;;;;;;;;;;;7.40;28.84;102093.25;4987787;28;19944;-89
2022/03/20 08:35:02;;;;;;;;;;;;;;;8.20;26.95;102089.03;4990109;28;19921;-87
2022/03/20 08:37:28;;;;;;;;;;;;;;;8.85;28.00;102088.47;5001162;28;19926;-88
2022/03/20 08:39:54;;;;;;;;;;;;;;;7.34;26.00;102086.06;5019482;28;20355;-87
2022/03/20 08:42:19;;;;;;;;;;;;;;;7.21;27.30;102083.81;4987592;28;19932;-88
2022/03/20 08:44:44;;;;;;;;;;;;;;;7.14;28.53;102080.06;4989615;28;20439;-86
2022/03/20 08:47:10;;;;;;;;;;;;;;;7.09;27.76;102068.47;4974890;28;20017;-84
2022/03/20 08:49:35;;;;;;;;;;;;;;;6.44;28.16;102069.53;4973741;28;19928;-88
2022/03/20 08:52:00;;;;;;;;;;;;;;;6.68;27.36;102067.81;4988750;28;19953;-88
2022/03/20 08:54:26;;;;;;;;;;;;;;;7.19;26.23;102070.63;5009982;28;20420;-89
2022/03/20 08:56:51;;;;;;;;;;;;;;;7.79;26.62;102063.97;4978711;28;19956;-87
2022/03/20 08:59:16;;;;;;;;;;;;;;;7.61;24.89;102062.47;4989412;28;19921;-89
2022/03/20 09:01:42;;;;;;;;;;;;;;;7.60;26.44;102051.91;5004326;28;19925;-89
2022/03/20 09:04:07;;;;;;;;;;;;;;;8.08;27.51;102054.44;4984199;28;19926;-90
2022/03/20 09:06:32;;;;;;;;;;;;;;;8.01;30.23;102055.06;4969808;28;19922;-90
2022/03/20 09:08:58;;;;;;;;;;;;;;;7.45;26.84;102039.16;4969612;28;19922;-92
2022/03/20 09:11:23;;;;;;;;;;;;;;;6.74;27.11;102036.59;4983202;28;20285;-92
2022/03/20 09:13:48;;;;;;;;;;;;;;;6.24;29.30;102044.22;5011086;28;19945;-90
2022/03/20 09:19:04;;;;;;;;;;;;;;;7.15;26.89;102042.47;4989839;28;20350;-93
2022/03/20 09:21:30;;;;;;;;;;;;;;;7.75;25.68;102036.69;5005060;28;19917;-92
2022/03/20 09:23:56;;;;;;;;;;;;;;;7.98;27.59;102044.47;5004446;28;19975;-92
2022/03/20 09:26:21;;;;;;;;;;;;;;;7.16;26.72;102037.25;5005198;28;20343;-93
2022/03/20 09:28:47;;;;;;;;;;;;;;;6.82;27.72;102028.16;5005063;28;19918;-91
2022/03/20 09:31:14;;;;;;;;;;;;;;;6.55;27.26;102037.59;4989845;28;20436;-94
2022/03/20 09:33:40;;;;;;;;;;;;;;;5.95;27.46;102040.38;5004877;28;19918;-91
2022/03/20 09:36:06;;;;;;;;;;;;;;;6.52;26.41;102029.59;5004171;28;19929;-92
2022/03/20 09:38:32;;;;;;;;;;;;;;;7.03;26.83;102021.94;5004277;28;20324;-91
2022/03/20 09:40:59;;;;;;;;;;;;;;;7.23;26.22;102019.09;5021379;28;19918;-93
2022/03/20 09:43:25;;;;;;;;;;;;;;;7.08;27.34;102015.09;4989668;28;19928;-91
2022/03/20 09:45:52;;;;;;;;;;;;;;;7.30;28.42;102019.38;4989831;28;20300;-93
2022/03/20 09:48:18;;;;;;;;;;;;;;;7.14;26.08;102015.31;5004315;28;19929;-91
2022/03/20 09:50:45;;;;;;;;;;;;;;;7.17;25.66;102009.31;4991114;28;19921;-90
2022/03/20 09:53:10;;;;;;;;;;;;;;;6.97;25.38;102004.22;5004741;28;19918;-88
2022/03/20 09:55:35;;;;;;;;;;;;;;;7.58;25.75;102009.84;5020039;28;20376;-91
2022/03/20 09:58:00;;;;;;;;;;;;;;;8.09;25.81;102001.00;4989262;28;20305;-94
2022/03/20 10:00:26;;;;;;;;;;;;;;;7.98;28.69;101990.16;5004787;28;19921;-93
2022/03/20 10:02:51;;;;;;;;;;;;;;;7.91;25.96;101989.91;5005732;28;20379;-93
2022/03/20 10:05:25;;;;;;;;;;;;;;;7.23;26.77;101996.41;5005317;28;20363;-93
2022/03/20 10:07:50;;;;;;;;;;;;;;;6.74;27.12;101992.88;5007482;28;20754;-92
2022/03/20 10:10:16;;;;;;;;;;;;;;;6.48;26.41;101997.13;5010068;28;19922;-93
2022/03/20 10:12:44;;;;;;;;;;;;;;;7.09;26.88;101989.75;5026765;28;19925;-92
2022/03/20 10:15:10;;;;;;;;;;;;;;;7.37;26.75;101978.50;5010046;28;19976;-91
2022/03/20 10:17:37;;;;;;;;;;;;;;;7.81;27.98;101976.47;5007918;28;19926;-92
2022/03/20 10:20:12;;;;;;;;;;;;;;;8.24;27.00;101987.47;5010356;28;19926;-93
2022/03/20 10:22:38;;;;;;;;;;;;;;;7.70;26.51;101981.34;4991718;28;19944;-92
2022/03/20 10:25:03;;;;;;;;;;;;;;;7.71;27.22;101972.66;4993219;28;19930;-92
2022/03/20 10:27:28;;;;;;;;;;;;;;;7.65;26.86;101971.56;4991804;28;19976;-91
2022/03/20 10:29:55;;;;;;;;;;;;;;;7.64;28.36;101973.28;4993127;28;19930;-93
2022/03/20 10:32:21;;;;;;;;;;;;;;;7.71;27.71;101975.28;4995723;28;19925;-93
2022/03/20 10:34:57;;;;;;;;;;;;;;;7.70;27.79;101969.97;4994767;28;20301;-93
2022/03/20 10:37:42;;;;;;;;;;;;;;;7.65;26.66;101964.56;4992263;28;19969;-92
2022/03/20 10:40:11;;;;;;;;;;;;;;;7.22;26.52;101970.97;4992989;28;19925;-90
2022/03/20 10:42:36;;;;;;;;;;;;;;;7.10;25.28;101971.41;4991931;28;19984;-90
2022/03/20 10:45:03;;;;;;;;;;;;;;;7.28;25.40;101963.31;4993101;28;19917;-92
2022/03/20 10:47:28;;;;;;;;;;;;;;;7.46;26.25;101936.81;4992175;28;19921;-92
2022/03/20 10:50:09;;;;;;;;;;;;;;;7.62;24.96;101959.22;4991886;28;20004;-91
2022/03/20 10:52:38;;;;;;;;;;;;;;;8.13;25.04;101947.69;5007239;28;19941;-88
2022/03/20 10:55:08;;;;;;;;;;;;;;;8.37;25.20;101939.66;4991012;28;19924;-88
2022/03/20 10:57:33;;;;;;;;;;;;;;;8.62;24.08;101937.78;4992170;28;19972;-90
2022/03/20 11:00:00;;;;;;;;;;;;;;;8.04;25.64;101945.66;4992697;28;19922;-90
2022/03/20 11:02:25;;;;;;;;;;;;;;;7.99;24.48;101939.38;4991646;28;19985;-91
2022/03/20 11:04:51;;;;;;;;;;;;;;;7.76;25.69;101940.38;5024004;28;19918;-89
2022/03/20 11:07:17;;;;;;;;;;;;;;;7.39;25.36;101937.44;4991445;28;19924;-89
2022/03/20 11:09:53;;;;;;;;;;;;;;;7.58;25.23;101927.53;4991268;28;19922;-90
2022/03/20 11:12:22;;;;;;;;;;;;;;;8.06;27.32;101925.59;4990194;28;19976;-88
2022/03/20 11:14:47;;;;;;;;;;;;;;;8.16;27.77;101923.25;4987534;28;19922;-87
2022/03/20 11:17:17;;;;;;;;;;;;;;;8.12;25.18;101911.72;4994732;28;19932;-86
2022/03/20 11:19:47;;;;;;;;;;;;;;;8.19;26.93;101916.31;4998728;28;19967;-87
2022/03/20 11:22:14;;;;;;;;;;;;;;;8.18;25.63;101918.91;5010958;28;20016;-87
2022/03/20 11:24:40;;;;;;;;;;;;;;;8.05;24.39;101912.41;5009737;28;19925;-88
2022/03/20 11:27:08;;;;;;;;;;;;;;;8.21;23.68;101917.25;5010839;28;19921;-86
2022/03/20 11:29:42;;;;;;;;;;;;;;;8.23;24.49;101912.03;5010631;28;19918;-88
2022/03/20 11:32:08;;;;;;;;;;;;;;;7.85;24.70;101917.03;5010352;28;19964;-86
2022/03/20 11:34:34;;;;;;;;;;;;;;;8.06;24.99;101906.28;5010371;28;20395;-86
2022/03/20 11:37:05;;;;;;;;;;;;;;;8.76;24.82;101894.31;5043118;28;19921;-87
2022/03/20 11:39:31;;;;;;;;;;;;;;;8.78;23.42;101899.63;5041530;28;20324;-84
2022/03/20 11:42:15;;;;;;;;;;;;;;;8.58;24.27;101888.56;5006044;28;19928;-85
2022/03/20 11:44:50;;;;;;;;;;;;;;;8.56;23.10;101887.63;5010435;28;20009;-87
2022/03/20 11:47:15;;;;;;;;;;;;;;;8.48;26.38;101881.22;5026642;28;19967;-85
2022/03/20 11:49:41;;;;;;;;;;;;;;;8.37;23.95;101881.81;5042781;28;19926;-84
2022/03/20 11:52:07;;;;;;;;;;;;;;;7.94;25.05;101880.53;5025994;28;20323;-84
2022/03/20 11:54:42;;;;;;;;;;;;;;;7.77;25.56;101877.38;5010221;28;19917;-85
2022/03/20 11:57:35;;;;;;;;;;;;;;;8.18;23.57;101876.84;5010006;28;19922;-86
2022/03/20 12:00:10;;;;;;;;;;;;;;;8.62;24.37;101865.84;5035380;28;19921;-87
2022/03/20 12:02:35;;;;;;;;;;;;;;;8.27;24.65;101858.72;5007037;28;19921;-85
2022/03/20 12:05:09;;;;;;;;;;;;;;;8.16;23.67;101861.03;5004437;28;19936;-89
2022/03/20 12:07:35;;;;;;;;;;;;;;;8.33;25.86;101860.63;5006790;28;19925;-86
2022/03/20 12:10:04;;;;;;;;;;;;;;;8.38;24.75;101859.91;5039258;28;20388;-87
2022/03/20 12:12:29;;;;;;;;;;;;;;;8.65;24.27;101858.03;5006444;28;20324;-85
2022/03/20 12:14:56;;;;;;;;;;;;;;;9.07;25.20;101838.97;5007270;28;19922;-84
2022/03/20 12:17:22;;;;;;;;;;;;;;;9.50;26.85;101835.66;5007702;28;19925;-84
2022/03/20 12:19:49;;;;;;;;;;;;;;;9.43;25.83;101841.59;5009097;28;19924;-85
2022/03/20 12:22:27;;;;;;;;;;;;;;;9.20;23.73;101838.41;5005381;28;19988;-92
2022/03/20 12:24:54;;;;;;;;;;;;;;;9.26;23.41;101832.41;5020338;28;20000;-88
2022/03/20 12:27:22;;;;;;;;;;;;;;;9.12;24.81;101832.97;5005708;28;19922;-87
2022/03/20 12:29:48;;;;;;;;;;;;;;;9.05;24.87;101824.88;4999660;28;19918;-87
2022/03/20 12:32:15;;;;;;;;;;;;;;;8.98;25.05;101817.69;5037983;28;19925;-88
2022/03/20 12:34:44;;;;;;;;;;;;;;;9.03;24.61;101818.69;5009378;28;20380;-88
2022/03/20 12:37:49;;;;;;;;;;;;;;;8.80;23.58;101810.19;5023398;28;20008;-88
2022/03/20 12:40:13;;;;;;;;;;;;;;;8.70;25.34;101812.59;5010821;28;20008;-89
2022/03/20 12:42:40;;;;;;;;;;;;;;;8.60;25.49;101805.28;5042455;28;20012;-85
2022/03/20 12:45:08;;;;;;;;;;;;;;;8.51;24.79;101802.41;5011800;28;20499;-86
2022/03/20 12:47:33;;;;;;;;;;;;;;;8.42;25.22;101808.28;5023693;28;19925;-89
2022/03/20 12:50:00;;;;;;;;;;;;;;;8.63;24.58;101800.09;5002669;28;19917;-90
2022/03/20 12:52:25;;;;;;;;;;;;;;;8.52;24.62;101804.19;5016433;28;19918;-87
2022/03/20 12:54:54;;;;;;;;;;;;;;;8.44;23.56;101796.09;5009419;28;20296;-88
2022/03/20 12:57:43;;;;;;;;;;;;;;;8.31;22.92;101796.56;4993145;28;19918;-84
2022/03/20 13:00:09;;;;;;;;;;;;;;;8.78;23.48;101783.84;5006549;28;19925;-86
2022/03/20 13:02:34;;;;;;;;;;;;;;;9.38;24.06;101777.41;5005920;28;20311;-85
2022/03/20 13:05:10;;;;;;;;;;;;;;;9.39;23.39;101776.56;4992048;28;20012;-86
2022/03/20 13:07:38;;;;;;;;;;;;;;;9.41;23.37;101774.84;4990840;28;19925;-86